Terminal Aerodrome Forecast
Issued by NWS

Home | Current Version | Previous Version | Text Only | Print | Product List | Glossary On
Versions: 1 2 3 4 5 6 7 8 9 10 11 12 13 14 15 16 17 18 19
000
FTUS46 KSGX 281737
TAFSNA
TAF
KSNA 281737Z 2818/0118 24010KT P6SM VCSH SCT025 BKN035
     FM010300 VRB05KT P6SM VCSH BKN025 OVC035
     FM011100 VRB05KT 5SM -SHRA BR SCT015 BKN025=

USA.gov is the U.S. government's official web portal to all federal, state and local government web resources and services.